sensor_id;sensor_type;location;lat;lon;timestamp;temperature;humidity
7920;DHT22;18778;47.610;9.776;2024-01-27T00:04:00;6.00;99.90
7920;DHT22;18778;47.610;9.776;2024-01-27T00:06:26;5.60;99.90
7920;DHT22;18778;47.610;9.776;2024-01-27T00:08:52;6.50;99.90
7920;DHT22;18778;47.610;9.776;2024-01-27T00:11:17;5.80;99.90
7920;DHT22;18778;47.610;9.776;2024-01-27T00:13:44;5.80;99.90
7920;DHT22;18778;47.610;9.776;2024-01-27T00:16:10;5.90;99.90
7920;DHT22;18778;47.610;9.776;2024-01-27T00:18:36;5.70;99.90
7920;DHT22;18778;47.610;9.776;2024-01-27T00:21:03;5.70;99.90
7920;DHT22;18778;47.610;9.776;2024-01-27T00:23:29;5.80;99.90
7920;DHT22;18778;47.610;9.776;2024-01-27T00:25:54;5.50;99.90
7920;DHT22;18778;47.610;9.776;2024-01-27T00:28:20;5.50;99.90
7920;DHT22;18778;47.610;9.776;2024-01-27T00:33:11;5.60;99.90
7920;DHT22;18778;47.610;9.776;2024-01-27T00:35:37;5.50;99.90
7920;DHT22;18778;47.610;9.776;2024-01-27T00:38:02;5.50;99.90
7920;DHT22;18778;47.610;9.776;2024-01-27T00:40:28;5.50;99.90
7920;DHT22;18778;47.610;9.776;2024-01-27T00:42:54;5.50;99.90
7920;DHT22;18778;47.610;9.776;2024-01-27T00:45:20;5.50;99.90
7920;DHT22;18778;47.610;9.776;2024-01-27T00:47:49;5.50;99.90
7920;DHT22;18778;47.610;9.776;2024-01-27T00:50:15;6.10;99.90
7920;DHT22;18778;47.610;9.776;2024-01-27T00:52:40;5.40;99.90
7920;DHT22;18778;47.610;9.776;2024-01-27T00:55:06;5.40;99.90
7920;DHT22;18778;47.610;9.776;2024-01-27T00:57:32;5.40;99.90
7920;DHT22;18778;47.610;9.776;2024-01-27T00:59:57;7.20;99.90
7920;DHT22;18778;47.610;9.776;2024-01-27T01:02:23;7.90;99.90
7920;DHT22;18778;47.610;9.776;2024-01-27T01:04:49;6.80;99.90
7920;DHT22;18778;47.610;9.776;2024-01-27T01:07:14;5.40;99.90
7920;DHT22;18778;47.610;9.776;2024-01-27T01:09:40;5.20;99.90
7920;DHT22;18778;47.610;9.776;2024-01-27T01:12:06;5.20;99.90
7920;DHT22;18778;47.610;9.776;2024-01-27T01:14:31;5.30;99.90
7920;DHT22;18778;47.610;9.776;2024-01-27T01:16:57;7.40;99.90
7920;DHT22;18778;47.610;9.776;2024-01-27T01:19:23;5.30;99.90
7920;DHT22;18778;47.610;9.776;2024-01-27T01:21:49;5.30;99.90
7920;DHT22;18778;47.610;9.776;2024-01-27T01:24:14;5.30;99.90
7920;DHT22;18778;47.610;9.776;2024-01-27T01:26:40;5.10;99.90
7920;DHT22;18778;47.610;9.776;2024-01-27T01:29:05;5.20;99.90
7920;DHT22;18778;47.610;9.776;2024-01-27T01:31:31;5.30;99.90
7920;DHT22;18778;47.610;9.776;2024-01-27T01:33:57;5.20;99.90
7920;DHT22;18778;47.610;9.776;2024-01-27T01:36:22;8.50;99.90
7920;DHT22;18778;47.610;9.776;2024-01-27T01:38:48;5.00;99.90
7920;DHT22;18778;47.610;9.776;2024-01-27T01:41:13;5.00;99.90
7920;DHT22;18778;47.610;9.776;2024-01-27T01:43:39;5.20;99.90
7920;DHT22;18778;47.610;9.776;2024-01-27T01:46:05;5.00;99.90
7920;DHT22;18778;47.610;9.776;2024-01-27T01:48:30;5.10;99.90
7920;DHT22;18778;47.610;9.776;2024-01-27T01:50:56;5.10;99.90
7920;DHT22;18778;47.610;9.776;2024-01-27T01:53:22;5.50;99.90
7920;DHT22;18778;47.610;9.776;2024-01-27T01:55:48;5.00;99.90
7920;DHT22;18778;47.610;9.776;2024-01-27T01:58:15;5.00;99.90
7920;DHT22;18778;47.610;9.776;2024-01-27T02:00:42;5.10;99.90
7920;DHT22;18778;47.610;9.776;2024-01-27T02:03:13;7.20;99.90
7920;DHT22;18778;47.610;9.776;2024-01-27T02:05:39;5.10;99.90
7920;DHT22;18778;47.610;9.776;2024-01-27T02:08:05;5.20;99.90
7920;DHT22;18778;47.610;9.776;2024-01-27T02:10:33;5.10;99.90
7920;DHT22;18778;47.610;9.776;2024-01-27T02:13:21;5.00;99.90
7920;DHT22;18778;47.610;9.776;2024-01-27T02:15:48;5.00;99.90
7920;DHT22;18778;47.610;9.776;2024-01-27T02:18:14;5.00;99.90
7920;DHT22;18778;47.610;9.776;2024-01-27T02:20:40;4.90;99.90
7920;DHT22;18778;47.610;9.776;2024-01-27T02:23:06;4.80;99.90
7920;DHT22;18778;47.610;9.776;2024-01-27T02:25:32;4.80;99.90
7920;DHT22;18778;47.610;9.776;2024-01-27T02:27:58;4.90;99.90
7920;DHT22;18778;47.610;9.776;2024-01-27T02:30:23;5.60;99.90
7920;DHT22;18778;47.610;9.776;2024-01-27T02:32:49;4.80;99.90
7920;DHT22;18778;47.610;9.776;2024-01-27T02:35:15;4.70;99.90
7920;DHT22;18778;47.610;9.776;2024-01-27T02:37:42;4.80;99.90
7920;DHT22;18778;47.610;9.776;2024-01-27T02:40:08;4.70;99.90
7920;DHT22;18778;47.610;9.776;2024-01-27T02:42:35;4.80;99.90
7920;DHT22;18778;47.610;9.776;2024-01-27T02:45:01;7.20;99.90
7920;DHT22;18778;47.610;9.776;2024-01-27T02:47:27;4.90;99.90
7920;DHT22;18778;47.610;9.776;2024-01-27T02:49:52;8.10;99.90
7920;DHT22;18778;47.610;9.776;2024-01-27T02:52:18;5.00;99.90
7920;DHT22;18778;47.610;9.776;2024-01-27T02:54:43;4.90;99.90
7920;DHT22;18778;47.610;9.776;2024-01-27T02:57:09;4.80;99.90
7920;DHT22;18778;47.610;9.776;2024-01-27T02:59:34;4.60;99.90
7920;DHT22;18778;47.610;9.776;2024-01-27T03:04:26;4.80;99.90
7920;DHT22;18778;47.610;9.776;2024-01-27T03:06:52;4.80;99.90
7920;DHT22;18778;47.610;9.776;2024-01-27T03:09:17;4.70;99.90
7920;DHT22;18778;47.610;9.776;2024-01-27T03:11:43;5.20;99.90
7920;DHT22;18778;47.610;9.776;2024-01-27T03:14:09;4.80;99.90
7920;DHT22;18778;47.610;9.776;2024-01-27T03:16:35;4.80;99.90
7920;DHT22;18778;47.610;9.776;2024-01-27T03:19:01;4.80;99.90
7920;DHT22;18778;47.610;9.776;2024-01-27T03:21:27;4.80;99.90
7920;DHT22;18778;47.610;9.776;2024-01-27T03:23:52;4.60;99.90
7920;DHT22;18778;47.610;9.776;2024-01-27T03:26:18;4.60;99.90
7920;DHT22;18778;47.610;9.776;2024-01-27T03:28:44;4.70;99.90
7920;DHT22;18778;47.610;9.776;2024-01-27T03:31:09;4.50;99.90
7920;DHT22;18778;47.610;9.776;2024-01-27T03:33:35;4.50;99.90
7920;DHT22;18778;47.610;9.776;2024-01-27T03:36:00;4.80;99.90
7920;DHT22;18778;47.610;9.776;2024-01-27T03:38:26;4.60;99.90
7920;DHT22;18778;47.610;9.776;2024-01-27T03:40:51;4.60;99.90
7920;DHT22;18778;47.610;9.776;2024-01-27T03:43:17;4.30;99.90
7920;DHT22;18778;47.610;9.776;2024-01-27T03:45:43;4.40;99.90
7920;DHT22;18778;47.610;9.776;2024-01-27T03:48:08;4.30;99.90
7920;DHT22;18778;47.610;9.776;2024-01-27T03:50:34;4.40;99.90
7920;DHT22;18778;47.610;9.776;2024-01-27T03:52:59;4.30;99.90
7920;DHT22;18778;47.610;9.776;2024-01-27T03:55:25;4.10;99.90
7920;DHT22;18778;47.610;9.776;2024-01-27T03:57:50;4.80;99.90
7920;DHT22;18778;47.610;9.776;2024-01-27T04:00:16;7.10;99.90
7920;DHT22;18778;47.610;9.776;2024-01-27T04:02:42;4.30;99.90
7920;DHT22;18778;47.610;9.776;2024-01-27T04:05:07;4.20;99.90
7920;DHT22;18778;47.610;9.776;2024-01-27T04:07:33;4.10;99.90
7920;DHT22;18778;47.610;9.776;2024-01-27T04:09:59;3.90;99.90
7920;DHT22;18778;47.610;9.776;2024-01-27T04:12:24;3.80;99.90
7920;DHT22;18778;47.610;9.776;2024-01-27T04:14:50;3.70;99.90
7920;DHT22;18778;47.610;9.776;2024-01-27T04:17:16;3.70;99.90
7920;DHT22;18778;47.610;9.776;2024-01-27T04:19:41;4.50;99.90
7920;DHT22;18778;47.610;9.776;2024-01-27T04:22:07;5.60;99.90
7920;DHT22;18778;47.610;9.776;2024-01-27T04:24:33;3.50;99.90
7920;DHT22;18778;47.610;9.776;2024-01-27T04:26:59;5.60;99.90
7920;DHT22;18778;47.610;9.776;2024-01-27T04:29:24;3.50;99.90
7920;DHT22;18778;47.610;9.776;2024-01-27T04:31:50;4.90;99.90
7920;DHT22;18778;47.610;9.776;2024-01-27T04:34:16;3.50;99.90
7920;DHT22;18778;47.610;9.776;2024-01-27T04:36:42;3.30;99.90
7920;DHT22;18778;47.610;9.776;2024-01-27T04:39:07;3.30;99.90
7920;DHT22;18778;47.610;9.776;2024-01-27T04:41:33;3.50;99.90
7920;DHT22;18778;47.610;9.776;2024-01-27T04:43:58;3.50;99.90
7920;DHT22;18778;47.610;9.776;2024-01-27T04:46:24;3.40;99.90
7920;DHT22;18778;47.610;9.776;2024-01-27T04:48:50;3.40;99.90
7920;DHT22;18778;47.610;9.776;2024-01-27T04:51:15;3.30;99.90
7920;DHT22;18778;47.610;9.776;2024-01-27T04:53:41;3.40;99.90
7920;DHT22;18778;47.610;9.776;2024-01-27T04:56:06;3.30;99.90
7920;DHT22;18778;47.610;9.776;2024-01-27T04:58:34;3.40;99.90
7920;DHT22;18778;47.610;9.776;2024-01-27T05:01:01;3.30;99.90
7920;DHT22;18778;47.610;9.776;2024-01-27T05:03:26;3.20;99.90
7920;DHT22;18778;47.610;9.776;2024-01-27T05:05:52;3.40;99.90
7920;DHT22;18778;47.610;9.776;2024-01-27T05:08:18;4.10;99.90
7920;DHT22;18778;47.610;9.776;2024-01-27T05:10:44;3.50;99.90
7920;DHT22;18778;47.610;9.776;2024-01-27T05:13:10;3.30;99.90
7920;DHT22;18778;47.610;9.776;2024-01-27T05:18:01;3.50;99.90
7920;DHT22;18778;47.610;9.776;2024-01-27T05:20:27;3.60;99.90
7920;DHT22;18778;47.610;9.776;2024-01-27T05:22:53;3.50;99.90
7920;DHT22;18778;47.610;9.776;2024-01-27T05:25:18;3.60;99.90
7920;DHT22;18778;47.610;9.776;2024-01-27T05:27:44;3.60;99.90
7920;DHT22;18778;47.610;9.776;2024-01-27T05:30:10;3.50;99.90
7920;DHT22;18778;47.610;9.776;2024-01-27T05:32:36;3.60;99.90
7920;DHT22;18778;47.610;9.776;2024-01-27T05:35:01;3.60;99.90
7920;DHT22;18778;47.610;9.776;2024-01-27T05:37:28;3.40;99.90
7920;DHT22;18778;47.610;9.776;2024-01-27T05:39:54;3.40;99.90
7920;DHT22;18778;47.610;9.776;2024-01-27T05:42:21;3.40;99.90
7920;DHT22;18778;47.610;9.776;2024-01-27T05:44:47;3.30;99.90
7920;DHT22;18778;47.610;9.776;2024-01-27T05:47:13;3.30;99.90
7920;DHT22;18778;47.610;9.776;2024-01-27T05:49:38;3.30;99.90
7920;DHT22;18778;47.610;9.776;2024-01-27T05:52:04;2.90;99.90
7920;DHT22;18778;47.610;9.776;2024-01-27T05:54:30;3.20;99.90
7920;DHT22;18778;47.610;9.776;2024-01-27T05:56:55;3.30;99.90
7920;DHT22;18778;47.610;9.776;2024-01-27T05:59:21;3.30;99.90
7920;DHT22;18778;47.610;9.776;2024-01-27T06:01:47;3.30;99.90
7920;DHT22;18778;47.610;9.776;2024-01-27T06:04:13;3.20;99.90
7920;DHT22;18778;47.610;9.776;2024-01-27T06:06:38;4.60;99.90
7920;DHT22;18778;47.610;9.776;2024-01-27T06:09:05;3.20;99.90
7920;DHT22;18778;47.610;9.776;2024-01-27T06:11:30;3.20;99.90
7920;DHT22;18778;47.610;9.776;2024-01-27T06:13:56;3.30;99.90
7920;DHT22;18778;47.610;9.776;2024-01-27T06:16:23;3.20;99.90
7920;DHT22;18778;47.610;9.776;2024-01-27T06:18:49;3.10;99.90
7920;DHT22;18778;47.610;9.776;2024-01-27T06:21:14;6.00;99.90
7920;DHT22;18778;47.610;9.776;2024-01-27T06:26:06;2.90;99.90
7920;DHT22;18778;47.610;9.776;2024-01-27T06:28:32;2.70;99.90
7920;DHT22;18778;47.610;9.776;2024-01-27T06:38:16;2.80;99.90
7920;DHT22;18778;47.610;9.776;2024-01-27T06:40:41;2.60;99.90
7920;DHT22;18778;47.610;9.776;2024-01-27T06:43:07;2.70;99.90
7920;DHT22;18778;47.610;9.776;2024-01-27T06:45:32;2.40;99.90
7920;DHT22;18778;47.610;9.776;2024-01-27T06:47:58;2.60;99.90
7920;DHT22;18778;47.610;9.776;2024-01-27T06:50:24;2.50;99.90
7920;DHT22;18778;47.610;9.776;2024-01-27T06:57:41;2.30;99.90
7920;DHT22;18778;47.610;9.776;2024-01-27T07:00:07;2.00;99.90
7920;DHT22;18778;47.610;9.776;2024-01-27T07:02:33;2.30;99.90
7920;DHT22;18778;47.610;9.776;2024-01-27T07:04:58;4.00;99.90
7920;DHT22;18778;47.610;9.776;2024-01-27T07:07:28;2.10;99.90
7920;DHT22;18778;47.610;9.776;2024-01-27T07:10:06;2.20;99.90
7920;DHT22;18778;47.610;9.776;2024-01-27T07:20:08;2.00;99.90
7920;DHT22;18778;47.610;9.776;2024-01-27T07:22:34;2.10;99.90
7920;DHT22;18778;47.610;9.776;2024-01-27T07:24:59;3.70;99.90
7920;DHT22;18778;47.610;9.776;2024-01-27T07:27:25;2.10;99.90
7920;DHT22;18778;47.610;9.776;2024-01-27T07:29:50;2.20;99.90
7920;DHT22;18778;47.610;9.776;2024-01-27T07:32:16;2.20;99.90
7920;DHT22;18778;47.610;9.776;2024-01-27T07:34:45;2.20;99.90
7920;DHT22;18778;47.610;9.776;2024-01-27T07:37:10;2.30;99.90
7920;DHT22;18778;47.610;9.776;2024-01-27T07:39:36;2.30;99.90
7920;DHT22;18778;47.610;9.776;2024-01-27T07:42:01;2.30;99.90
7920;DHT22;18778;47.610;9.776;2024-01-27T07:44:27;2.40;99.90
7920;DHT22;18778;47.610;9.776;2024-01-27T07:46:53;2.40;99.90
7920;DHT22;18778;47.610;9.776;2024-01-27T07:49:18;2.30;99.90
7920;DHT22;18778;47.610;9.776;2024-01-27T07:51:44;2.50;99.90
7920;DHT22;18778;47.610;9.776;2024-01-27T07:54:10;2.60;99.90
7920;DHT22;18778;47.610;9.776;2024-01-27T07:56:37;2.60;99.90
7920;DHT22;18778;47.610;9.776;2024-01-27T07:59:03;2.50;99.90
7920;DHT22;18778;47.610;9.776;2024-01-27T08:01:29;2.70;99.90
7920;DHT22;18778;47.610;9.776;2024-01-27T08:03:54;2.70;99.90
7920;DHT22;18778;47.610;9.776;2024-01-27T08:06:27;2.50;99.90
7920;DHT22;18778;47.610;9.776;2024-01-27T08:08:53;2.70;99.90
7920;DHT22;18778;47.610;9.776;2024-01-27T08:11:19;4.00;99.90
7920;DHT22;18778;47.610;9.776;2024-01-27T08:13:45;3.00;99.90
7920;DHT22;18778;47.610;9.776;2024-01-27T08:16:10;5.70;99.90
7920;DHT22;18778;47.610;9.776;2024-01-27T08:18:40;3.40;99.90
7920;DHT22;18778;47.610;9.776;2024-01-27T08:21:08;3.40;99.90
7920;DHT22;18778;47.610;9.776;2024-01-27T08:23:34;3.10;99.90
7920;DHT22;18778;47.610;9.776;2024-01-27T08:25:59;3.40;99.90
7920;DHT22;18778;47.610;9.776;2024-01-27T08:28:25;3.30;99.90
7920;DHT22;18778;47.610;9.776;2024-01-27T08:30:51;3.20;99.90
7920;DHT22;18778;47.610;9.776;2024-01-27T08:33:16;4.30;99.90
7920;DHT22;18778;47.610;9.776;2024-01-27T08:35:42;3.20;99.90
7920;DHT22;18778;47.610;9.776;2024-01-27T08:38:07;3.20;99.90
7920;DHT22;18778;47.610;9.776;2024-01-27T08:40:35;3.30;99.90
7920;DHT22;18778;47.610;9.776;2024-01-27T08:43:01;3.30;99.90
7920;DHT22;18778;47.610;9.776;2024-01-27T08:45:27;3.30;99.90
7920;DHT22;18778;47.610;9.776;2024-01-27T08:47:53;3.50;99.90
7920;DHT22;18778;47.610;9.776;2024-01-27T08:50:18;3.60;99.90
7920;DHT22;18778;47.610;9.776;2024-01-27T08:52:44;3.70;99.90
7920;DHT22;18778;47.610;9.776;2024-01-27T08:55:11;3.70;99.90
7920;DHT22;18778;47.610;9.776;2024-01-27T08:57:36;4.10;99.90
7920;DHT22;18778;47.610;9.776;2024-01-27T09:00:02;4.30;99.90
7920;DHT22;18778;47.610;9.776;2024-01-27T09:02:28;4.60;99.90
7920;DHT22;18778;47.610;9.776;2024-01-27T09:04:54;4.80;99.90
7920;DHT22;18778;47.610;9.776;2024-01-27T09:07:20;6.30;99.90
7920;DHT22;18778;47.610;9.776;2024-01-27T09:09:46;5.90;99.90
7920;DHT22;18778;47.610;9.776;2024-01-27T09:12:11;6.60;99.90
7920;DHT22;18778;47.610;9.776;2024-01-27T09:14:37;8.20;99.90
7920;DHT22;18778;47.610;9.776;2024-01-27T09:17:03;8.70;99.90
7920;DHT22;18778;47.610;9.776;2024-01-27T09:19:28;9.20;99.90
7920;DHT22;18778;47.610;9.776;2024-01-27T09:21:54;9.70;99.90
7920;DHT22;18778;47.610;9.776;2024-01-27T09:24:19;10.10;99.90
7920;DHT22;18778;47.610;9.776;2024-01-27T09:26:45;10.80;99.90
7920;DHT22;18778;47.610;9.776;2024-01-27T09:29:10;11.90;99.90
7920;DHT22;18778;47.610;9.776;2024-01-27T09:31:36;11.30;99.90
7920;DHT22;18778;47.610;9.776;2024-01-27T09:34:02;12.70;99.90
7920;DHT22;18778;47.610;9.776;2024-01-27T09:36:28;13.70;99.90
7920;DHT22;18778;47.610;9.776;2024-01-27T09:38:53;12.40;99.90
7920;DHT22;18778;47.610;9.776;2024-01-27T09:41:20;12.40;99.90
7920;DHT22;18778;47.610;9.776;2024-01-27T09:43:46;13.70;99.90
7920;DHT22;18778;47.610;9.776;2024-01-27T09:46:13;14.20;99.90
7920;DHT22;18778;47.610;9.776;2024-01-27T09:48:39;11.50;99.90
7920;DHT22;18778;47.610;9.776;2024-01-27T09:51:07;11.80;99.90
7920;DHT22;18778;47.610;9.776;2024-01-27T09:53:33;10.20;99.90
7920;DHT22;18778;47.610;9.776;2024-01-27T09:55:59;10.30;99.90
7920;DHT22;18778;47.610;9.776;2024-01-27T09:58:28;12.20;99.90
7920;DHT22;18778;47.610;9.776;2024-01-27T10:00:56;10.70;99.90
7920;DHT22;18778;47.610;9.776;2024-01-27T10:03:26;8.90;99.90
7920;DHT22;18778;47.610;9.776;2024-01-27T10:05:56;8.90;99.90
7920;DHT22;18778;47.610;9.776;2024-01-27T10:08:22;9.10;99.90
7920;DHT22;18778;47.610;9.776;2024-01-27T10:10:55;10.60;99.90
7920;DHT22;18778;47.610;9.776;2024-01-27T10:13:23;10.70;99.90
7920;DHT22;18778;47.610;9.776;2024-01-27T10:18:27;12.10;99.90
7920;DHT22;18778;47.610;9.776;2024-01-27T10:20:53;13.00;99.90
7920;DHT22;18778;47.610;9.776;2024-01-27T10:23:19;13.20;99.90
7920;DHT22;18778;47.610;9.776;2024-01-27T10:25:44;11.90;99.90
7920;DHT22;18778;47.610;9.776;2024-01-27T10:28:10;13.80;99.90
7920;DHT22;18778;47.610;9.776;2024-01-27T10:30:36;13.20;99.90
7920;DHT22;18778;47.610;9.776;2024-01-27T10:33:02;13.20;99.90
7920;DHT22;18778;47.610;9.776;2024-01-27T10:35:28;13.10;99.90
7920;DHT22;18778;47.610;9.776;2024-01-27T10:37:55;13.20;99.90
7920;DHT22;18778;47.610;9.776;2024-01-27T10:40:22;13.70;99.90
7920;DHT22;18778;47.610;9.776;2024-01-27T10:43:10;14.00;99.90
7920;DHT22;18778;47.610;9.776;2024-01-27T10:45:40;14.20;99.90
7920;DHT22;18778;47.610;9.776;2024-01-27T10:48:07;14.30;99.90
7920;DHT22;18778;47.610;9.776;2024-01-27T10:50:35;15.30;99.90
7920;DHT22;18778;47.610;9.776;2024-01-27T10:53:03;15.30;99.90
7920;DHT22;18778;47.610;9.776;2024-01-27T10:55:32;15.90;99.90
7920;DHT22;18778;47.610;9.776;2024-01-27T10:57:59;16.00;99.90
7920;DHT22;18778;47.610;9.776;2024-01-27T11:00:28;16.10;99.90
7920;DHT22;18778;47.610;9.776;2024-01-27T11:02:58;16.10;99.90
7920;DHT22;18778;47.610;9.776;2024-01-27T11:05:24;15.90;99.90
7920;DHT22;18778;47.610;9.776;2024-01-27T11:07:50;15.80;99.90
7920;DHT22;18778;47.610;9.776;2024-01-27T11:10:17;15.70;99.90
7920;DHT22;18778;47.610;9.776;2024-01-27T11:12:43;15.60;99.90
7920;DHT22;18778;47.610;9.776;2024-01-27T11:15:10;15.80;99.90
7920;DHT22;18778;47.610;9.776;2024-01-27T11:17:40;15.80;99.90
7920;DHT22;18778;47.610;9.776;2024-01-27T11:20:08;15.00;99.90
7920;DHT22;18778;47.610;9.776;2024-01-27T11:22:34;14.50;99.90
7920;DHT22;18778;47.610;9.776;2024-01-27T11:25:06;15.50;99.90
7920;DHT22;18778;47.610;9.776;2024-01-27T11:27:32;15.30;99.90
7920;DHT22;18778;47.610;9.776;2024-01-27T11:29:58;15.80;99.90
7920;DHT22;18778;47.610;9.776;2024-01-27T11:32:23;15.80;99.90
7920;DHT22;18778;47.610;9.776;2024-01-27T11:34:51;15.70;99.90
7920;DHT22;18778;47.610;9.776;2024-01-27T11:37:17;15.80;99.90
7920;DHT22;18778;47.610;9.776;2024-01-27T11:39:45;15.80;99.90
7920;DHT22;18778;47.610;9.776;2024-01-27T11:42:12;15.20;99.90
7920;DHT22;18778;47.610;9.776;2024-01-27T11:44:39;14.90;99.90
7920;DHT22;18778;47.610;9.776;2024-01-27T11:47:22;14.40;99.90
7920;DHT22;18778;47.610;9.776;2024-01-27T11:49:52;14.60;99.90
7920;DHT22;18778;47.610;9.776;2024-01-27T11:52:23;14.60;99.90
7920;DHT22;18778;47.610;9.776;2024-01-27T11:55:00;14.70;99.90
7920;DHT22;18778;47.610;9.776;2024-01-27T11:57:26;15.00;99.90
7920;DHT22;18778;47.610;9.776;2024-01-27T11:59:53;15.10;99.90
7920;DHT22;18778;47.610;9.776;2024-01-27T12:02:18;14.80;99.90
7920;DHT22;18778;47.610;9.776;2024-01-27T12:04:44;14.60;99.90
7920;DHT22;18778;47.610;9.776;2024-01-27T12:07:10;15.00;99.90
7920;DHT22;18778;47.610;9.776;2024-01-27T12:09:36;14.90;99.90
7920;DHT22;18778;47.610;9.776;2024-01-27T12:12:03;15.00;99.90
7920;DHT22;18778;47.610;9.776;2024-01-27T12:17:05;15.00;99.90
7920;DHT22;18778;47.610;9.776;2024-01-27T12:19:30;14.80;99.90
7920;DHT22;18778;47.610;9.776;2024-01-27T12:21:57;14.70;99.90
7920;DHT22;18778;47.610;9.776;2024-01-27T12:24:24;14.40;99.90
7920;DHT22;18778;47.610;9.776;2024-01-27T12:26:49;14.30;99.90
7920;DHT22;18778;47.610;9.776;2024-01-27T12:29:15;14.00;99.90
7920;DHT22;18778;47.610;9.776;2024-01-27T12:31:41;13.90;99.90
7920;DHT22;18778;47.610;9.776;2024-01-27T12:34:07;14.10;99.90
7920;DHT22;18778;47.610;9.776;2024-01-27T12:36:33;14.70;99.90
7920;DHT22;18778;47.610;9.776;2024-01-27T12:39:00;13.90;99.90
7920;DHT22;18778;47.610;9.776;2024-01-27T12:41:26;13.00;99.90
7920;DHT22;18778;47.610;9.776;2024-01-27T12:43:52;12.80;99.90
7920;DHT22;18778;47.610;9.776;2024-01-27T12:46:18;13.70;99.90
7920;DHT22;18778;47.610;9.776;2024-01-27T12:48:45;13.40;99.90
7920;DHT22;18778;47.610;9.776;2024-01-27T12:51:10;12.00;99.90
7920;DHT22;18778;47.610;9.776;2024-01-27T12:53:39;13.10;99.90
7920;DHT22;18778;47.610;9.776;2024-01-27T12:56:07;12.30;99.90
7920;DHT22;18778;47.610;9.776;2024-01-27T12:58:34;13.10;99.90
7920;DHT22;18778;47.610;9.776;2024-01-27T13:01:00;12.70;99.90
7920;DHT22;18778;47.610;9.776;2024-01-27T13:03:25;12.40;99.90
7920;DHT22;18778;47.610;9.776;2024-01-27T13:05:51;12.40;99.90
7920;DHT22;18778;47.610;9.776;2024-01-27T13:08:17;13.90;99.90
7920;DHT22;18778;47.610;9.776;2024-01-27T13:10:42;11.50;99.90
7920;DHT22;18778;47.610;9.776;2024-01-27T13:13:08;11.50;99.90
7920;DHT22;18778;47.610;9.776;2024-01-27T13:15:33;11.30;99.90
7920;DHT22;18778;47.610;9.776;2024-01-27T13:17:59;12.20;99.90
7920;DHT22;18778;47.610;9.776;2024-01-27T13:20:25;11.20;99.90
7920;DHT22;18778;47.610;9.776;2024-01-27T13:22:50;13.00;99.90
7920;DHT22;18778;47.610;9.776;2024-01-27T13:25:18;13.80;99.90
7920;DHT22;18778;47.610;9.776;2024-01-27T13:30:10;11.30;99.90
7920;DHT22;18778;47.610;9.776;2024-01-27T13:32:35;11.50;99.90
7920;DHT22;18778;47.610;9.776;2024-01-27T13:35:01;13.10;99.90
7920;DHT22;18778;47.610;9.776;2024-01-27T13:37:26;12.00;99.90
7920;DHT22;18778;47.610;9.776;2024-01-27T13:39:53;12.30;99.90
7920;DHT22;18778;47.610;9.776;2024-01-27T13:42:18;13.30;99.90
7920;DHT22;18778;47.610;9.776;2024-01-27T13:44:44;12.30;99.90
7920;DHT22;18778;47.610;9.776;2024-01-27T13:47:11;12.60;99.90
7920;DHT22;18778;47.610;9.776;2024-01-27T13:52:04;12.60;99.90
7920;DHT22;18778;47.610;9.776;2024-01-27T13:54:30;12.20;99.90
7920;DHT22;18778;47.610;9.776;2024-01-27T13:56:56;12.00;99.90
7920;DHT22;18778;47.610;9.776;2024-01-27T13:59:23;12.90;99.90
7920;DHT22;18778;47.610;9.776;2024-01-27T14:01:48;12.20;99.90
7920;DHT22;18778;47.610;9.776;2024-01-27T14:04:14;12.10;99.90
7920;DHT22;18778;47.610;9.776;2024-01-27T14:06:39;12.10;99.90
7920;DHT22;18778;47.610;9.776;2024-01-27T14:09:05;12.20;99.90
7920;DHT22;18778;47.610;9.776;2024-01-27T14:11:32;11.70;99.90
7920;DHT22;18778;47.610;9.776;2024-01-27T14:13:57;11.70;99.90
7920;DHT22;18778;47.610;9.776;2024-01-27T14:16:23;12.90;99.90
7920;DHT22;18778;47.610;9.776;2024-01-27T14:18:50;12.50;99.90
7920;DHT22;18778;47.610;9.776;2024-01-27T14:21:15;14.40;99.90
7920;DHT22;18778;47.610;9.776;2024-01-27T14:23:41;14.00;99.90
7920;DHT22;18778;47.610;9.776;2024-01-27T14:26:07;13.60;99.90
7920;DHT22;18778;47.610;9.776;2024-01-27T14:28:40;13.90;99.90
7920;DHT22;18778;47.610;9.776;2024-01-27T14:31:06;13.90;99.90
7920;DHT22;18778;47.610;9.776;2024-01-27T14:33:31;13.60;99.90
7920;DHT22;18778;47.610;9.776;2024-01-27T14:35:57;14.00;99.90
7920;DHT22;18778;47.610;9.776;2024-01-27T14:38:22;12.90;99.90
7920;DHT22;18778;47.610;9.776;2024-01-27T14:40:48;12.90;99.90
7920;DHT22;18778;47.610;9.776;2024-01-27T14:43:13;13.70;99.90
7920;DHT22;18778;47.610;9.776;2024-01-27T14:45:39;12.70;99.90
7920;DHT22;18778;47.610;9.776;2024-01-27T14:48:05;12.80;99.90
7920;DHT22;18778;47.610;9.776;2024-01-27T14:50:31;12.60;99.90
7920;DHT22;18778;47.610;9.776;2024-01-27T14:52:56;13.90;99.90
7920;DHT22;18778;47.610;9.776;2024-01-27T14:55:22;12.00;99.90
7920;DHT22;18778;47.610;9.776;2024-01-27T14:57:48;12.00;99.90
7920;DHT22;18778;47.610;9.776;2024-01-27T15:00:13;11.90;99.90
7920;DHT22;18778;47.610;9.776;2024-01-27T15:02:41;12.10;99.90
7920;DHT22;18778;47.610;9.776;2024-01-27T15:05:09;13.60;99.90
7920;DHT22;18778;47.610;9.776;2024-01-27T15:07:35;11.60;99.90
7920;DHT22;18778;47.610;9.776;2024-01-27T15:10:00;11.20;99.90
7920;DHT22;18778;47.610;9.776;2024-01-27T15:12:26;13.40;99.90
7920;DHT22;18778;47.610;9.776;2024-01-27T15:14:52;12.40;99.90
7920;DHT22;18778;47.610;9.776;2024-01-27T15:17:18;10.80;99.90
7920;DHT22;18778;47.610;9.776;2024-01-27T15:19:44;10.10;99.90
7920;DHT22;18778;47.610;9.776;2024-01-27T15:22:10;10.20;99.90
7920;DHT22;18778;47.610;9.776;2024-01-27T15:24:35;10.00;99.90
7920;DHT22;18778;47.610;9.776;2024-01-27T15:27:03;9.90;99.90
7920;DHT22;18778;47.610;9.776;2024-01-27T15:29:29;9.80;99.90
7920;DHT22;18778;47.610;9.776;2024-01-27T15:31:55;10.70;99.90
7920;DHT22;18778;47.610;9.776;2024-01-27T15:34:21;11.50;99.90
7920;DHT22;18778;47.610;9.776;2024-01-27T15:36:46;9.70;99.90
7920;DHT22;18778;47.610;9.776;2024-01-27T15:39:12;9.70;99.90
7920;DHT22;18778;47.610;9.776;2024-01-27T15:41:37;11.90;99.90
7920;DHT22;18778;47.610;9.776;2024-01-27T15:44:03;10.80;99.90
7920;DHT22;18778;47.610;9.776;2024-01-27T15:46:29;9.70;99.90
7920;DHT22;18778;47.610;9.776;2024-01-27T15:48:55;10.60;99.90
7920;DHT22;18778;47.610;9.776;2024-01-27T15:51:21;10.10;99.90
7920;DHT22;18778;47.610;9.776;2024-01-27T15:53:46;9.10;99.90
7920;DHT22;18778;47.610;9.776;2024-01-27T15:56:12;8.70;99.90
7920;DHT22;18778;47.610;9.776;2024-01-27T15:58:38;8.50;99.90
7920;DHT22;18778;47.610;9.776;2024-01-27T16:01:03;8.30;99.90
7920;DHT22;18778;47.610;9.776;2024-01-27T16:03:29;8.00;99.90
7920;DHT22;18778;47.610;9.776;2024-01-27T16:05:54;7.80;99.90
7920;DHT22;18778;47.610;9.776;2024-01-27T16:08:20;7.70;99.90
7920;DHT22;18778;47.610;9.776;2024-01-27T16:10:46;7.40;99.90
7920;DHT22;18778;47.610;9.776;2024-01-27T16:13:11;7.40;99.90
7920;DHT22;18778;47.610;9.776;2024-01-27T16:15:37;7.30;99.90
7920;DHT22;18778;47.610;9.776;2024-01-27T16:18:02;7.60;99.90
7920;DHT22;18778;47.610;9.776;2024-01-27T16:20:28;6.90;99.90
7920;DHT22;18778;47.610;9.776;2024-01-27T16:22:54;6.60;99.90
7920;DHT22;18778;47.610;9.776;2024-01-27T16:25:19;6.40;99.90
7920;DHT22;18778;47.610;9.776;2024-01-27T16:27:45;6.30;99.90
7920;DHT22;18778;47.610;9.776;2024-01-27T16:30:11;6.10;99.90